Time;durP1;ratioP1;P1;durP2;ratioP2;P2;SDS_P1;SDS_P2;PMS_P1;PMS_P2;Temp;Humidity;BMP_temperature;BMP_pressure;BME280_temperature;BME280_humidity;BME280_pressure;Samples;Min_cycle;Max_cycle;Signal;HPM_P1;HPM_P2
2021/09/10 00:01:52;;;;;;;;;1.25;1.25;;;;;24.01;57.16;100718.22;4882260;29;45876;-68
2021/09/10 00:04:18;;;;;;;;;1.00;1.00;;;;;24.03;56.70;100715.38;4883776;29;45505;-68
2021/09/10 00:06:44;;;;;;;;;1.00;1.00;;;;;24.18;57.23;100743.13;4883735;29;45290;-68
2021/09/10 00:09:10;;;;;;;;;1.00;1.00;;;;;24.05;57.23;100735.16;4866767;29;45839;-68
2021/09/10 00:11:36;;;;;;;;;2.00;2.00;;;;;24.12;57.33;100747.25;4883367;29;45379;-68
2021/09/10 00:14:02;;;;;;;;;2.75;2.75;;;;;24.01;57.18;100733.72;4866750;29;45415;-68
2021/09/10 00:16:27;;;;;;;;;2.00;2.00;;;;;24.19;57.19;100753.00;4886854;29;45238;-68
2021/09/10 00:18:53;;;;;;;;;1.50;1.50;;;;;24.18;57.33;100748.56;4886905;29;45425;-68
2021/09/10 00:21:18;;;;;;;;;2.00;2.00;;;;;23.94;56.92;100718.91;4883592;29;45532;-68
2021/09/10 00:23:43;;;;;;;;;0.25;0.25;;;;;23.96;57.57;100712.31;4878459;29;45326;-68
2021/09/10 00:26:10;;;;;;;;;2.00;2.00;;;;;24.05;57.01;100727.00;4882173;29;45362;-68
2021/09/10 00:28:36;;;;;;;;;2.00;2.00;;;;;24.14;56.93;100744.38;4886538;29;45460;-68
2021/09/10 00:31:02;;;;;;;;;2.75;2.75;;;;;24.05;57.48;100729.72;4869323;29;46966;-68
2021/09/10 00:33:28;;;;;;;;;1.50;1.50;;;;;24.04;57.10;100733.47;4886755;29;45492;-67
2021/09/10 00:35:54;;;;;;;;;2.00;2.00;;;;;24.10;57.13;100743.78;4886346;29;45261;-68
2021/09/10 00:38:19;;;;;;;;;2.50;2.25;;;;;24.07;57.39;100737.75;4885163;29;46014;-68
2021/09/10 00:40:45;;;;;;;;;1.00;1.00;;;;;23.89;57.74;100713.00;4885755;29;45270;-68
2021/09/10 00:43:10;;;;;;;;;0.75;0.75;;;;;23.99;57.63;100731.16;4886574;29;45339;-68
2021/09/10 00:45:44;;;;;;;;;1.50;1.50;;;;;24.10;57.89;100759.31;4886548;29;45478;-68
2021/09/10 00:48:10;;;;;;;;;1.25;1.25;;;;;23.95;57.87;100740.56;4886508;29;45368;-68
2021/09/10 00:50:36;;;;;;;;;2.50;2.00;;;;;23.92;57.72;100745.44;4885489;29;46280;-68
2021/09/10 00:53:01;;;;;;;;;1.50;1.00;;;;;23.86;57.15;100735.97;4886242;29;45261;-68
2021/09/10 00:55:29;;;;;;;;;1.25;1.25;;;;;23.88;57.76;100744.84;4884900;29;45749;-68
2021/09/10 00:57:54;;;;;;;;;2.00;1.00;;;;;23.86;57.32;100741.41;4886520;29;45370;-68
2021/09/10 01:00:20;;;;;;;;;2.25;2.25;;;;;23.84;57.50;100747.00;4885937;29;46181;-68
2021/09/10 01:02:46;;;;;;;;;2.00;2.00;;;;;23.82;58.09;100757.19;4886244;29;45320;-68
2021/09/10 01:05:13;;;;;;;;;2.00;2.00;;;;;23.92;57.92;100773.56;4886223;29;45403;-68
2021/09/10 01:07:38;;;;;;;;;2.00;2.00;;;;;23.81;57.87;100749.97;4886356;29;45249;-68
2021/09/10 01:10:05;;;;;;;;;2.00;2.00;;;;;23.88;58.44;100769.38;4885766;29;45523;-68
2021/09/10 01:12:30;;;;;;;;;2.25;1.25;;;;;23.79;57.73;100759.25;4886002;29;45867;-68
2021/09/10 01:14:57;;;;;;;;;2.00;2.00;;;;;23.67;57.98;100744.84;4884771;29;45391;-68
2021/09/10 01:17:22;;;;;;;;;2.00;2.00;;;;;23.94;57.89;100776.16;4883468;29;46204;-68
2021/09/10 01:19:48;;;;;;;;;2.00;2.00;;;;;23.86;58.12;100772.25;4875097;29;46184;-67
2021/09/10 01:22:13;;;;;;;;;2.00;2.00;;;;;23.88;57.88;100766.66;4885582;29;45394;-68
2021/09/10 01:25:00;;;;;;;;;2.25;2.25;;;;;23.84;58.36;100766.06;4872953;29;45698;-67
2021/09/10 01:27:26;;;;;;;;;4.00;2.00;;;;;23.87;57.94;100767.66;4880981;29;45970;-68
2021/09/10 01:29:51;;;;;;;;;2.00;2.00;;;;;23.94;58.27;100782.50;4885529;29;46438;-68
2021/09/10 01:32:16;;;;;;;;;1.25;1.25;;;;;23.76;58.27;100762.28;4885596;29;45428;-67
2021/09/10 01:34:42;;;;;;;;;1.25;1.25;;;;;23.75;58.16;100763.25;4885709;29;45481;-67
2021/09/10 01:37:07;;;;;;;;;2.00;2.00;;;;;23.72;58.28;100756.19;4900068;29;45787;-68
2021/09/10 01:39:32;;;;;;;;;2.25;2.25;;;;;23.61;58.21;100735.34;4885205;29;47185;-68
2021/09/10 01:41:58;;;;;;;;;2.00;1.00;;;;;23.83;58.17;100775.25;4885405;29;45388;-68
2021/09/10 01:44:23;;;;;;;;;2.00;2.00;;;;;23.81;58.20;100777.22;4868874;29;45367;-68
2021/09/10 01:46:49;;;;;;;;;1.25;1.25;;;;;23.64;58.24;100753.31;4884938;29;45562;-68
2021/09/10 01:49:14;;;;;;;;;2.50;2.50;;;;;23.82;58.33;100784.44;4884803;29;45350;-67
2021/09/10 01:51:40;;;;;;;;;1.25;1.25;;;;;23.78;58.69;100779.34;4885259;29;45227;-68
2021/09/10 01:54:05;;;;;;;;;3.75;2.00;;;;;23.83;58.61;100782.56;4884812;29;45187;-68
2021/09/10 01:56:31;;;;;;;;;2.00;2.00;;;;;23.75;58.73;100768.72;4885194;29;45385;-67
2021/09/10 01:58:56;;;;;;;;;3.00;3.00;;;;;23.74;58.47;100781.47;4885128;29;46266;-68
2021/09/10 02:01:27;;;;;;;;;3.00;2.00;;;;;23.75;58.66;100772.28;4884920;29;45248;-68
2021/09/10 02:03:53;;;;;;;;;3.25;3.00;;;;;23.77;58.68;100777.59;4873229;29;45482;-67
2021/09/10 02:06:19;;;;;;;;;2.00;2.00;;;;;23.80;58.51;100791.81;4885176;29;45297;-68
2021/09/10 02:08:45;;;;;;;;;3.00;3.00;;;;;23.79;58.38;100781.06;4868352;29;47480;-67
2021/09/10 02:11:11;;;;;;;;;4.75;2.75;;;;;23.73;58.95;100776.16;4867949;29;45269;-67
2021/09/10 02:13:36;;;;;;;;;3.00;2.00;;;;;23.58;58.76;100751.13;4883703;29;45412;-67
2021/09/10 02:16:01;;;;;;;;;2.25;1.25;;;;;23.77;58.62;100800.31;4883805;29;46204;-67
2021/09/10 02:18:27;;;;;;;;;2.00;2.00;;;;;23.73;59.06;100796.09;4885150;29;46443;-68
2021/09/10 02:20:53;;;;;;;;;2.00;2.00;;;;;23.66;59.08;100794.91;4884660;29;45238;-67
2021/09/10 02:23:19;;;;;;;;;2.00;2.00;;;;;23.72;59.25;100797.06;4879488;29;45759;-67
2021/09/10 02:25:44;;;;;;;;;2.00;0.75;;;;;23.73;58.57;100800.69;4877261;29;45249;-67
2021/09/10 02:28:10;;;;;;;;;3.00;3.00;;;;;23.59;58.82;100774.63;4884459;29;45377;-67
2021/09/10 02:30:35;;;;;;;;;5.00;3.25;;;;;23.66;58.97;100792.19;4867856;29;45449;-67
2021/09/10 02:33:01;;;;;;;;;2.00;2.00;;;;;23.74;58.77;100800.56;4885044;29;45393;-67
2021/09/10 02:35:26;;;;;;;;;1.25;1.25;;;;;23.60;58.88;100773.63;4884861;29;45518;-68
2021/09/10 02:37:53;;;;;;;;;2.00;2.00;;;;;23.71;59.19;100789.91;4883133;29;46633;-68
2021/09/10 02:40:19;;;;;;;;;3.00;3.00;;;;;23.62;58.81;100774.34;4880851;29;45472;-67
2021/09/10 02:42:44;;;;;;;;;2.00;2.00;;;;;23.66;59.08;100786.75;4882714;29;45261;-67
2021/09/10 02:45:10;;;;;;;;;4.00;3.00;;;;;23.58;59.21;100770.19;4867803;29;45784;-68
2021/09/10 02:47:35;;;;;;;;;2.25;2.25;;;;;23.52;58.78;100762.53;4872293;29;46456;-68
2021/09/10 02:50:01;;;;;;;;;3.50;3.00;;;;;23.65;59.33;100793.16;4883345;29;46511;-68
2021/09/10 02:52:27;;;;;;;;;2.25;2.25;;;;;23.52;59.43;100777.00;4884628;29;45342;-67
2021/09/10 02:54:52;;;;;;;;;3.00;3.00;;;;;23.44;59.50;100771.41;4884090;29;45349;-67
2021/09/10 02:57:18;;;;;;;;;2.00;2.00;;;;;23.50;59.54;100776.28;4867560;29;47211;-68
2021/09/10 02:59:43;;;;;;;;;3.00;2.00;;;;;23.58;59.42;100787.38;4867213;29;45361;-67
2021/09/10 03:02:08;;;;;;;;;6.75;3.50;;;;;23.49;59.45;100774.59;4884591;29;45212;-67
2021/09/10 03:04:34;;;;;;;;;3.75;2.25;;;;;23.31;59.37;100737.03;4884500;29;45377;-68
2021/09/10 03:06:59;;;;;;;;;2.25;2.25;;;;;23.43;59.76;100756.88;4884358;29;46309;-67
2021/09/10 03:09:26;;;;;;;;;4.50;3.00;;;;;23.33;59.43;100745.06;4884361;29;45448;-67
2021/09/10 03:11:52;;;;;;;;;5.25;3.00;;;;;23.37;59.76;100754.72;4884176;29;45529;-67
2021/09/10 03:14:17;;;;;;;;;4.25;2.00;;;;;23.37;59.96;100754.72;4883740;29;45483;-68
2021/09/10 03:16:43;;;;;;;;;2.25;2.00;;;;;23.49;59.85;100780.88;4884210;29;45762;-67
2021/09/10 03:19:09;;;;;;;;;2.00;2.00;;;;;23.47;59.94;100772.00;4883005;29;45308;-67
2021/09/10 03:21:35;;;;;;;;;2.50;2.00;;;;;23.47;59.93;100782.00;4855165;29;45334;-67
2021/09/10 03:24:00;;;;;;;;;3.00;3.00;;;;;23.42;60.37;100770.63;4874723;29;45382;-67
2021/09/10 03:26:26;;;;;;;;;2.25;1.75;;;;;23.36;59.76;100763.03;4883902;29;46019;-67
2021/09/10 03:28:52;;;;;;;;;2.00;2.00;;;;;23.43;60.05;100766.94;4884120;29;45261;-67
2021/09/10 03:31:17;;;;;;;;;2.50;2.50;;;;;23.47;59.95;100788.34;4884204;29;45356;-67
2021/09/10 03:33:43;;;;;;;;;4.00;3.00;;;;;23.35;59.88;100764.84;4867455;29;45267;-67
2021/09/10 03:36:08;;;;;;;;;4.00;4.00;;;;;23.22;59.95;100743.28;4882432;29;47694;-67
2021/09/10 03:38:33;;;;;;;;;6.25;4.00;;;;;23.24;60.13;100738.56;4883990;29;45210;-68
2021/09/10 03:40:59;;;;;;;;;3.50;2.50;;;;;23.43;60.26;100772.38;4867081;29;45548;-67
2021/09/10 03:43:24;;;;;;;;;5.00;3.25;;;;;23.21;60.37;100743.41;4883267;29;45529;-67
2021/09/10 03:45:50;;;;;;;;;3.50;3.50;;;;;23.25;60.17;100745.72;4883915;29;46316;-67
2021/09/10 03:48:15;;;;;;;;;3.25;3.00;;;;;23.42;60.57;100774.25;4883298;29;45294;-68
2021/09/10 03:50:41;;;;;;;;;3.25;3.00;;;;;23.40;60.26;100772.63;4886566;29;45388;-68
2021/09/10 03:53:06;;;;;;;;;4.25;4.25;;;;;23.44;60.39;100774.97;4885978;29;45451;-68
2021/09/10 03:55:32;;;;;;;;;4.75;3.50;;;;;23.38;60.26;100755.56;4869679;29;46993;-68
2021/09/10 03:57:57;;;;;;;;;4.00;3.00;;;;;23.39;60.29;100774.50;4870060;29;45300;-67
2021/09/10 04:00:23;;;;;;;;;3.50;3.50;;;;;23.34;60.20;100756.81;4887005;29;46022;-67
2021/09/10 04:02:48;;;;;;;;;3.25;3.00;;;;;23.25;60.68;100742.13;4887298;29;45555;-67
2021/09/10 04:05:13;;;;;;;;;4.00;4.00;;;;;23.22;60.36;100731.50;4886907;29;45474;-67
2021/09/10 04:07:39;;;;;;;;;5.25;5.25;;;;;23.28;60.46;100745.47;4887094;29;45387;-67
2021/09/10 04:10:05;;;;;;;;;6.00;5.00;;;;;23.36;60.91;100752.97;4886812;29;45245;-67
2021/09/10 04:12:30;;;;;;;;;4.25;4.25;;;;;23.31;60.58;100752.50;4886972;29;45308;-67
2021/09/10 04:14:56;;;;;;;;;0.25;0.00;;;;;23.38;60.57;100771.91;4886720;29;45311;-67
2021/09/10 04:17:21;;;;;;;;;5.75;5.50;;;;;23.35;60.85;100766.72;4886376;29;45327;-67
2021/09/10 04:19:46;;;;;;;;;7.00;5.25;;;;;23.29;60.77;100768.97;4869877;29;45230;-67
2021/09/10 04:22:14;;;;;;;;;5.50;5.50;;;;;23.35;60.59;100788.50;4886499;29;45384;-67
2021/09/10 04:24:40;;;;;;;;;5.00;5.00;;;;;23.23;60.98;100764.06;4880828;29;45468;-67
2021/09/10 04:27:05;;;;;;;;;6.00;6.00;;;;;23.24;60.87;100767.66;4886767;29;45401;-67
2021/09/10 04:29:31;;;;;;;;;5.75;3.50;;;;;23.21;60.64;100757.88;4869846;29;45413;-67
2021/09/10 04:31:56;;;;;;;;;4.50;4.25;;;;;23.15;60.66;100741.22;4886528;29;45440;-67
2021/09/10 04:34:21;;;;;;;;;6.00;6.00;;;;;23.23;60.99;100757.75;4886686;29;45474;-67
2021/09/10 04:36:47;;;;;;;;;8.25;5.25;;;;;23.21;61.13;100748.84;4886417;29;45476;-67
2021/09/10 04:39:12;;;;;;;;;7.00;6.00;;;;;23.25;60.27;100762.06;4886467;29;45851;-67
2021/09/10 04:41:37;;;;;;;;;4.50;4.50;;;;;23.35;61.10;100774.91;4881295;29;45496;-67
2021/09/10 04:44:03;;;;;;;;;4.00;4.00;;;;;23.27;60.58;100765.53;4886190;29;46424;-67
2021/09/10 04:46:28;;;;;;;;;6.25;5.25;;;;;23.26;60.73;100758.34;4884562;29;45388;-68
2021/09/10 04:48:54;;;;;;;;;5.75;4.50;;;;;23.36;60.57;100776.63;4885151;29;45427;-67
2021/09/10 04:51:19;;;;;;;;;6.00;6.00;;;;;23.22;60.59;100756.00;4884928;29;45340;-67
2021/09/10 04:53:44;;;;;;;;;5.00;4.00;;;;;23.22;60.71;100751.44;4869278;29;47164;-68
2021/09/10 04:56:10;;;;;;;;;5.75;4.50;;;;;23.40;60.91;100789.84;4886222;29;45262;-67
2021/09/10 04:58:35;;;;;;;;;7.50;7.25;;;;;23.16;60.85;100757.41;4886228;29;45443;-67
2021/09/10 05:01:01;;;;;;;;;5.75;5.00;;;;;23.30;60.92;100786.19;4885220;29;45333;-67
2021/09/10 05:03:26;;;;;;;;;8.50;4.50;;;;;23.15;61.10;100763.84;4886141;29;45346;-67
2021/09/10 05:05:52;;;;;;;;;4.00;4.00;;;;;23.33;60.72;100801.41;4886149;29;45211;-67
2021/09/10 05:08:17;;;;;;;;;6.00;6.00;;;;;23.19;60.94;100778.94;4868745;29;45416;-67
2021/09/10 05:10:42;;;;;;;;;6.00;6.00;;;;;23.09;61.13;100762.50;4885736;29;45318;-67
2021/09/10 05:13:08;;;;;;;;;6.00;5.00;;;;;23.18;61.30;100770.91;4884918;29;45432;-67
2021/09/10 05:15:33;;;;;;;;;4.50;4.00;;;;;23.17;60.79;100771.88;4885656;29;45395;-67
2021/09/10 05:17:59;;;;;;;;;3.75;3.75;;;;;23.17;60.86;100777.31;4885618;29;45251;-67
2021/09/10 05:20:24;;;;;;;;;4.00;4.00;;;;;23.09;61.10;100776.13;4885769;29;45354;-67
2021/09/10 05:22:53;;;;;;;;;5.50;5.50;;;;;23.01;61.09;100769.59;4884271;29;46241;-67
2021/09/10 05:25:19;;;;;;;;;4.75;4.50;;;;;22.99;61.27;100768.81;4874912;29;45436;-67
2021/09/10 05:27:44;;;;;;;;;3.00;3.00;;;;;22.99;61.15;100772.44;4885479;29;45301;-67
2021/09/10 05:30:10;;;;;;;;;4.50;4.50;;;;;23.11;61.90;100792.34;4885323;29;45420;-67
2021/09/10 05:32:36;;;;;;;;;8.25;4.25;;;;;23.13;61.36;100798.50;4868320;29;47156;-67
2021/09/10 05:35:01;;;;;;;;;4.00;4.00;;;;;22.98;61.69;100788.88;4884036;29;45354;-68
2021/09/10 05:37:26;;;;;;;;;4.50;4.50;;;;;22.99;61.79;100786.03;4885137;29;45248;-69
2021/09/10 05:39:52;;;;;;;;;4.00;4.00;;;;;22.90;61.58;100779.53;4875255;29;45405;-67
2021/09/10 05:42:17;;;;;;;;;5.00;4.25;;;;;22.98;61.69;100797.06;4884372;29;45426;-73
2021/09/10 05:44:42;;;;;;;;;6.00;6.00;;;;;23.08;61.56;100822.53;4884983;29;45244;-74
2021/09/10 05:47:08;;;;;;;;;6.50;5.50;;;;;22.88;61.46;100789.66;4885224;29;45178;-74
2021/09/10 05:49:33;;;;;;;;;4.00;4.00;;;;;22.87;61.58;100779.78;4885516;29;45298;-73
2021/09/10 05:51:59;;;;;;;;;5.50;5.25;;;;;23.14;61.39;100819.31;4883863;29;47485;-74
2021/09/10 05:54:27;;;;;;;;;7.00;5.75;;;;;23.17;61.55;100820.91;4884053;29;45626;-74
2021/09/10 05:56:52;;;;;;;;;6.00;6.00;;;;;22.99;61.86;100806.94;4880999;29;45486;-73
2021/09/10 05:59:17;;;;;;;;;4.75;4.75;;;;;23.18;61.47;100841.69;4888986;29;45215;-74
2021/09/10 06:01:43;;;;;;;;;5.00;4.25;;;;;22.99;61.54;100812.38;4884777;29;46273;-74
2021/09/10 06:04:08;;;;;;;;;6.50;5.50;;;;;23.10;61.86;100831.44;4883798;29;45472;-74
2021/09/10 06:06:37;;;;;;;;;6.00;6.00;;;;;23.01;61.17;100818.56;4884528;29;45330;-74
2021/09/10 06:09:02;;;;;;;;;5.75;4.50;;;;;23.19;61.52;100841.56;4891183;29;45341;-74
2021/09/10 06:11:27;;;;;;;;;5.00;5.00;;;;;23.11;61.69;100830.44;4882316;29;47243;-74
2021/09/10 06:13:56;;;;;;;;;6.50;5.00;;;;;23.03;61.01;100827.47;4878600;29;45400;-74
2021/09/10 06:16:24;;;;;;;;;4.50;3.75;;;;;23.19;61.53;100852.47;4881092;29;45716;-73
2021/09/10 06:18:52;;;;;;;;;6.00;6.00;;;;;23.19;61.26;100854.28;4883007;29;45371;-74
2021/09/10 06:21:17;;;;;;;;;6.00;6.00;;;;;23.00;61.53;100816.84;4897174;29;47137;-74
2021/09/10 06:23:42;;;;;;;;;7.00;5.75;;;;;22.90;62.00;100806.72;4883023;29;45316;-74
2021/09/10 06:26:08;;;;;;;;;8.00;7.00;;;;;23.06;61.70;100838.13;4884521;29;45455;-74
2021/09/10 06:28:34;;;;;;;;;4.25;4.25;;;;;23.12;61.64;100849.38;4884126;29;45358;-74
2021/09/10 06:31:00;;;;;;;;;6.50;6.00;;;;;23.03;61.73;100843.81;4883117;29;48114;-74
2021/09/10 06:33:26;;;;;;;;;6.25;5.00;;;;;22.99;61.85;100843.19;4898745;29;45415;-74
2021/09/10 06:35:51;;;;;;;;;6.00;5.75;;;;;23.12;61.64;100857.56;4899178;29;45444;-74
2021/09/10 06:38:17;;;;;;;;;8.25;7.00;;;;;23.12;61.79;100848.50;4884600;29;45490;-74
2021/09/10 06:40:42;;;;;;;;;5.25;5.25;;;;;23.05;61.96;100848.13;4893664;29;47210;-74
2021/09/10 06:43:08;;;;;;;;;5.00;5.00;;;;;22.88;61.95;100835.06;4883696;29;45473;-73
2021/09/10 06:45:33;;;;;;;;;5.75;5.75;;;;;22.87;61.34;100826.03;4884172;29;45545;-74
2021/09/10 06:47:59;;;;;;;;;6.25;5.25;;;;;23.08;61.61;100879.72;4884810;29;45477;-73
2021/09/10 06:50:25;;;;;;;;;6.75;5.25;;;;;22.87;61.93;100839.66;4884098;29;45881;-74
2021/09/10 06:52:50;;;;;;;;;6.25;6.25;;;;;22.86;62.13;100847.94;4884490;29;45242;-73
2021/09/10 06:55:15;;;;;;;;;4.75;4.50;;;;;23.10;61.74;100888.59;4883610;29;45751;-73
2021/09/10 06:57:44;;;;;;;;;4.75;4.75;;;;;22.91;61.71;100854.72;4883718;29;45218;-72
2021/09/10 07:00:09;;;;;;;;;6.50;6.00;;;;;22.88;62.16;100846.81;4883442;29;46401;-72
2021/09/10 07:02:35;;;;;;;;;6.00;5.00;;;;;23.18;61.97;100898.88;4881988;29;46324;-73
2021/09/10 07:05:00;;;;;;;;;6.50;6.50;;;;;23.00;61.82;100865.84;4884143;29;45608;-72
2021/09/10 07:07:26;;;;;;;;;6.50;5.00;;;;;23.05;61.69;100880.78;4884114;29;45649;-72
2021/09/10 07:09:51;;;;;;;;;4.75;4.00;;;;;23.03;61.93;100873.75;4883607;29;45404;-71
2021/09/10 07:12:18;;;;;;;;;5.25;5.25;;;;;23.18;61.95;100894.28;4897980;29;45547;-73
2021/09/10 07:14:44;;;;;;;;;4.00;4.00;;;;;23.20;62.02;100908.63;4882858;29;45425;-71
2021/09/10 07:17:11;;;;;;;;;8.00;6.00;;;;;22.92;61.92;100861.00;4882964;29;45532;-72
2021/09/10 07:19:37;;;;;;;;;6.00;5.75;;;;;23.12;62.14;100900.22;4884066;29;45636;-72
2021/09/10 07:22:03;;;;;;;;;7.75;6.75;;;;;22.97;61.93;100886.03;4883719;29;45268;-72
2021/09/10 07:24:28;;;;;;;;;7.00;6.00;;;;;22.94;61.68;100878.09;4887435;29;45674;-73
2021/09/10 07:26:54;;;;;;;;;7.50;7.00;;;;;23.07;61.78;100905.19;4870583;29;45601;-73
2021/09/10 07:29:22;;;;;;;;;8.00;5.00;;;;;22.97;62.16;100887.84;4882056;29;46187;-74
2021/09/10 07:31:48;;;;;;;;;7.50;6.50;;;;;22.95;61.61;100890.72;4874208;29;45613;-73
2021/09/10 07:34:13;;;;;;;;;5.50;4.00;;;;;22.98;62.01;100893.19;4884854;29;45702;-73
2021/09/10 07:36:38;;;;;;;;;7.25;6.50;;;;;23.11;61.80;100912.13;4884844;29;45502;-73
2021/09/10 07:39:04;;;;;;;;;10.75;7.00;;;;;22.88;62.10;100879.47;4884867;29;45511;-73
2021/09/10 07:41:29;;;;;;;;;6.00;4.25;;;;;22.94;61.87;100889.84;4882250;29;45417;-73
2021/09/10 07:43:54;;;;;;;;;5.25;5.25;;;;;22.83;62.33;100878.13;4884804;29;45920;-73
2021/09/10 07:46:20;;;;;;;;;5.00;5.00;;;;;22.84;62.41;100888.88;4887108;29;45786;-73
2021/09/10 07:48:45;;;;;;;;;6.50;6.50;;;;;22.85;62.40;100893.31;4885066;29;46658;-73
2021/09/10 07:51:11;;;;;;;;;6.75;6.75;;;;;22.83;62.48;100887.13;4886856;29;45237;-73
2021/09/10 07:53:36;;;;;;;;;5.00;5.00;;;;;22.89;62.24;100900.25;4885690;29;45311;-76
2021/09/10 07:56:02;;;;;;;;;9.25;6.00;;;;;22.82;62.27;100881.81;4886135;29;45351;-72
2021/09/10 07:58:27;;;;;;;;;7.00;7.00;;;;;23.07;62.38;100926.97;4882550;29;45569;-74
2021/09/10 08:00:55;;;;;;;;;7.00;4.50;;;;;23.02;61.71;100918.28;4882409;29;45373;-73
2021/09/10 08:03:20;;;;;;;;;6.25;6.00;;;;;23.08;62.25;100932.28;4882938;29;45342;-73
2021/09/10 08:05:46;;;;;;;;;5.25;5.00;;;;;23.16;62.12;100947.16;4873946;29;45650;-72
2021/09/10 08:08:11;;;;;;;;;6.00;6.00;;;;;23.04;62.26;100929.94;4869480;29;45997;-72
2021/09/10 08:10:36;;;;;;;;;4.25;4.25;;;;;23.13;62.11;100948.25;4880065;29;45441;-72
2021/09/10 08:13:02;;;;;;;;;5.75;5.00;;;;;22.99;62.28;100924.88;4863035;29;45591;-72
2021/09/10 08:15:28;;;;;;;;;6.50;5.25;;;;;23.01;62.09;100920.16;4876546;29;45409;-72
2021/09/10 08:17:53;;;;;;;;;5.00;4.75;;;;;23.23;62.05;100957.41;4886343;29;46446;-69
2021/09/10 08:20:18;;;;;;;;;5.25;5.25;;;;;23.03;62.12;100920.03;4882459;29;45470;-67
2021/09/10 08:22:46;;;;;;;;;6.00;4.00;;;;;23.25;62.05;100951.81;4884098;29;45461;-68
2021/09/10 08:25:12;;;;;;;;;6.50;5.00;;;;;23.28;61.97;100947.00;4874741;29;45484;-68
2021/09/10 08:27:38;;;;;;;;;4.00;4.00;;;;;23.29;61.87;100942.44;4886344;29;45955;-68
2021/09/10 08:30:05;;;;;;;;;4.00;4.00;;;;;23.30;61.62;100944.13;4886446;29;45300;-69
2021/09/10 08:32:31;;;;;;;;;6.50;6.00;;;;;23.29;61.92;100948.72;4885722;29;45308;-69
2021/09/10 08:34:57;;;;;;;;;5.00;5.00;;;;;23.24;62.01;100940.06;4886462;29;45319;-69
2021/09/10 08:37:22;;;;;;;;;5.00;5.00;;;;;23.17;62.36;100937.97;4885644;29;48053;-71
2021/09/10 08:39:47;;;;;;;;;6.00;5.00;;;;;23.20;61.76;100930.41;4885611;29;45370;-70
2021/09/10 09:01:07;;;;;;;;;5.00;3.50;;;;;23.49;60.95;100965.28;4604602;30;45593;-76
2021/09/10 09:03:58;;;;;;;;;3.00;3.00;;;;;23.24;60.80;100937.34;4623948;30;47234;-76
2021/09/10 09:06:47;;;;;;;;;;;;;;;;;;;;;
2021/09/10 09:09:50;;;;;;;;;3.50;3.50;;;;;23.36;61.09;100956.41;4813542;29;68795;-76
2021/09/10 09:12:34;;;;;;;;;;;;;;;;;;;;;
2021/09/10 09:15:54;;;;;;;;;;;;;;;;;;;;;
2021/09/10 09:18:40;;;;;;;;;5.50;4.75;;;;;23.24;60.52;100918.28;4880616;29;45582;-76
2021/09/10 09:21:21;;;;;;;;;;;;;;;;;;;;;
2021/09/10 09:23:56;;;;;;;;;6.00;4.00;;;;;23.60;60.57;100975.28;4876164;29;73323;-76
2021/09/10 09:26:32;;;;;;;;;4.75;3.25;;;;;23.23;60.41;100913.81;4865678;29;45630;-77
2021/09/10 09:29:31;;;;;;;;;3.00;3.00;;;;;23.39;59.95;100937.94;4878806;29;45534;-77
2021/09/10 09:32:07;;;;;;;;;4.75;4.75;;;;;23.65;59.74;100986.66;4873108;29;45543;-77
2021/09/10 09:35:01;;;;;;;;;4.50;3.75;;;;;23.66;59.88;100981.06;4868560;29;45856;-76
2021/09/10 09:37:38;;;;;;;;;3.25;3.25;;;;;23.37;60.17;100922.69;4867999;29;46089;-76
2021/09/10 09:40:14;;;;;;;;;;;;;;;;;;;;;
2021/09/10 09:42:50;;;;;;;;;;;;;;;;;;;;;
2021/09/10 09:45:23;;;;;;;;;3.75;3.75;;;;;23.69;59.77;100960.88;4884241;29;73349;-76
2021/09/10 09:48:49;;;;;;;;;4.00;4.00;;;;;23.75;59.92;100959.47;4875824;29;47254;-77
2021/09/10 09:52:02;;;;;;;;;;;;;;;;;;;;;
2021/09/10 09:54:51;;;;;;;;;7.00;7.00;;;;;23.89;59.76;100986.47;4870237;29;67956;-77
2021/09/10 09:57:33;;;;;;;;;4.50;4.50;;;;;23.75;59.68;100962.22;4868359;29;45612;-77
2021/09/10 10:00:33;;;;;;;;;;;;;;;;;;;;;
2021/09/10 10:03:07;;;;;;;;;3.50;3.50;;;;;23.65;58.78;100932.16;4877662;29;71651;-77
2021/09/10 10:05:44;;;;;;;;;5.75;4.75;;;;;23.82;58.91;100949.81;4875784;29;45439;-76
2021/09/10 10:08:19;;;;;;;;;3.50;2.50;;;;;23.59;59.06;100922.63;4885091;29;45237;-76
2021/09/10 10:10:51;;;;;;;;;3.75;3.00;;;;;23.65;58.73;100926.69;4867792;29;46191;-76
2021/09/10 10:13:46;;;;;;;;;3.00;3.00;;;;;23.58;58.84;100915.44;4867847;29;45509;-76
2021/09/10 10:16:50;;;;;;;;;6.00;5.00;;;;;24.01;58.64;100976.38;4859316;29;45535;-73
2021/09/10 10:19:23;;;;;;;;;3.00;3.00;;;;;24.03;57.96;100975.25;4883486;29;45524;-76
2021/09/10 10:22:17;;;;;;;;;3.25;3.25;;;;;23.91;57.63;100948.19;4868497;29;46391;-75
2021/09/10 10:25:32;;;;;;;;;;;;;;;;;;;;;
2021/09/10 10:32:10;;;;;;;;;3.00;3.00;;;;;24.07;57.33;100956.75;4843777;29;45468;-77
2021/09/10 10:35:40;;;;;;;;;4.00;4.00;;;;;24.09;57.75;100954.78;4884572;29;45569;-77
2021/09/10 10:39:13;;;;;;;;;;;;;;;;;;;;;
2021/09/10 10:44:57;;;;;;;;;;;;;;;;;;;;;
2021/09/10 10:48:01;;;;;;;;;5.50;5.00;;;;;24.08;56.94;100936.69;4881603;29;74511;-77
2021/09/10 10:50:50;;;;;;;;;3.00;3.00;;;;;24.20;56.87;100948.38;4876923;29;45452;-77
2021/09/10 10:53:56;;;;;;;;;3.00;3.00;;;;;23.99;56.26;100900.19;4884267;29;45514;-77
2021/09/10 10:56:21;;;;;;;;;3.00;3.00;;;;;24.33;56.72;100946.31;4854055;29;45258;-77
2021/09/10 10:58:47;;;;;;;;;2.50;2.50;;;;;24.30;56.45;100927.50;4881524;29;45330;-77
2021/09/10 11:01:12;;;;;;;;;3.00;3.00;;;;;24.34;56.29;100928.06;4876697;29;45325;-77
2021/09/10 11:03:37;;;;;;;;;6.00;4.25;;;;;24.45;56.23;100935.34;4884134;29;45357;-77
2021/09/10 11:06:37;;;;;;;;;4.50;2.50;;;;;24.35;55.37;100925.22;4884187;29;45631;-77
2021/09/10 11:09:06;;;;;;;;;3.75;3.25;;;;;24.40;55.80;100928.41;4879216;29;45556;-77
2021/09/10 11:11:33;;;;;;;;;3.00;3.00;;;;;24.51;55.66;100940.25;4873982;29;45336;-77
2021/09/10 11:13:58;;;;;;;;;4.00;2.75;;;;;24.54;54.91;100934.50;4867047;29;45397;-77
2021/09/10 11:16:29;;;;;;;;;3.00;3.00;;;;;24.56;55.12;100940.75;4867013;29;45508;-77
2021/09/10 11:18:54;;;;;;;;;4.25;4.25;;;;;24.53;55.21;100927.34;4884146;29;46074;-77
2021/09/10 11:21:26;;;;;;;;;3.00;3.00;;;;;24.55;54.51;100922.63;4883821;29;45281;-77
2021/09/10 11:23:51;;;;;;;;;2.50;2.50;;;;;24.57;54.79;100923.34;4874908;29;45400;-78
2021/09/10 11:26:16;;;;;;;;;4.00;4.00;;;;;24.62;54.85;100917.50;4877435;29;45321;-76
2021/09/10 11:28:42;;;;;;;;;2.00;2.00;;;;;24.61;54.21;100924.84;4879750;29;45779;-74
2021/09/10 11:31:07;;;;;;;;;4.25;3.00;;;;;24.69;55.08;100937.78;4880002;29;45415;-76
2021/09/10 11:33:46;;;;;;;;;2.75;2.50;;;;;24.64;55.72;100940.94;4876492;29;45718;-75
2021/09/10 11:36:23;;;;;;;;;5.25;4.00;;;;;24.67;56.12;100953.44;4879378;29;45568;-75
2021/09/10 11:38:48;;;;;;;;;3.00;3.00;;;;;24.66;56.12;100962.59;4872887;29;45521;-74
2021/09/10 11:41:14;;;;;;;;;2.75;2.75;;;;;24.64;56.33;100949.13;4879763;29;45736;-73
2021/09/10 11:43:39;;;;;;;;;4.00;4.00;;;;;24.60;57.37;100943.03;4879915;29;45773;-73
2021/09/10 11:46:08;;;;;;;;;4.25;4.00;;;;;24.57;58.03;100945.19;4880161;29;45480;-73
2021/09/10 11:48:38;;;;;;;;;4.00;2.75;;;;;24.54;58.55;100940.84;4878703;29;47292;-73
2021/09/10 11:51:08;;;;;;;;;4.00;4.00;;;;;24.47;57.98;100920.53;4880008;29;45802;-76
2021/09/10 11:53:46;;;;;;;;;3.00;2.50;;;;;24.57;59.27;100937.00;4878811;29;45687;-76
2021/09/10 11:56:27;;;;;;;;;2.00;2.00;;;;;24.57;58.50;100928.81;4877174;29;46103;-74
2021/09/10 11:58:53;;;;;;;;;2.25;2.25;;;;;24.59;57.80;100932.25;4879656;29;45490;-76
2021/09/10 12:01:24;;;;;;;;;3.75;3.75;;;;;24.60;57.75;100939.47;4850701;29;45660;-76
2021/09/10 12:04:10;;;;;;;;;2.00;2.00;;;;;24.58;58.45;100922.38;4883416;29;45440;-77
2021/09/10 12:06:44;;;;;;;;;4.75;4.75;;;;;24.60;58.32;100926.66;4876116;29;46018;-76
2021/09/10 12:09:14;;;;;;;;;3.00;3.00;;;;;24.63;57.11;100925.56;4883388;29;45703;-76
2021/09/10 12:12:00;;;;;;;;;3.00;3.00;;;;;24.63;57.62;100921.97;4886083;29;45372;-75
2021/09/10 12:14:34;;;;;;;;;6.00;5.00;;;;;24.63;57.36;100920.09;4854564;29;45508;-75
2021/09/10 12:17:15;;;;;;;;;4.50;4.50;;;;;24.54;57.44;100904.50;4882683;29;45438;-75